createdAt,value
2022-08-09T00:01:10.371Z,6.60
2022-08-09T00:04:25.026Z,4.97
2022-08-09T00:07:44.408Z,4.67
2022-08-09T00:10:53.846Z,6.07
2022-08-09T00:14:05.390Z,4.13
2022-08-09T00:18:04.710Z,4.20
2022-08-09T00:20:49.993Z,3.93
2022-08-09T00:23:59.924Z,5.13
2022-08-09T00:27:11.111Z,6.37
2022-08-09T00:30:25.347Z,4.90
2022-08-09T00:33:48.947Z,4.63
2022-08-09T00:36:57.588Z,4.23
2022-08-09T00:40:13.518Z,4.27
2022-08-09T00:44:15.861Z,6.87
2022-08-09T00:46:57.818Z,4.93
2022-08-09T00:50:14.286Z,3.57
2022-08-09T00:53:23.994Z,5.33
2022-08-09T00:56:30.928Z,3.67
2022-08-09T00:59:46.557Z,5.23
2022-08-09T01:02:55.332Z,7.03
2022-08-09T01:06:17.786Z,3.47
2022-08-09T01:09:36.755Z,5.30
2022-08-09T01:12:48.778Z,5.10
2022-08-09T01:16:01.156Z,6.40
2022-08-09T01:19:40.164Z,7.70
2022-08-09T01:24:00.933Z,4.80
2022-08-09T01:26:59.453Z,4.33
2022-08-09T01:30:08.987Z,5.10
2022-08-09T01:33:41.626Z,4.53
2022-08-09T01:36:49.598Z,6.00
2022-08-09T01:40:01.259Z,5.10
2022-08-09T01:43:14.174Z,8.00
2022-08-09T01:46:24.625Z,4.90
2022-08-09T01:49:39.148Z,7.80
2022-08-09T01:52:48.298Z,4.53
2022-08-09T01:55:58.984Z,7.53
2022-08-09T01:59:16.111Z,4.67
2022-08-09T02:02:31.331Z,5.53
2022-08-09T02:06:06.579Z,5.83
2022-08-09T02:09:10.577Z,5.43
2022-08-09T02:12:21.690Z,4.63
2022-08-09T02:15:48.959Z,5.03
2022-08-09T02:18:56.781Z,7.50
2022-08-09T02:22:19.154Z,4.30
2022-08-09T02:25:42.680Z,6.70
2022-08-09T02:29:00.737Z,3.97
2022-08-09T02:32:15.719Z,4.47
2022-08-09T02:36:01.342Z,4.43
2022-08-09T02:38:56.219Z,4.73
2022-08-09T02:42:06.721Z,4.27
2022-08-09T02:45:18.420Z,5.00
2022-08-09T02:48:31.061Z,3.53
2022-08-09T02:51:40.848Z,5.57
2022-08-09T02:54:54.339Z,3.87
2022-08-09T02:58:36.305Z,4.00
2022-08-09T03:01:42.663Z,8.70
2022-08-09T03:04:52.357Z,4.33
2022-08-09T03:07:59.632Z,5.83
2022-08-09T03:11:07.270Z,4.20
2022-08-09T03:14:18.268Z,5.30
2022-08-09T03:17:27.411Z,4.90
2022-08-09T03:20:37.268Z,4.57
2022-08-09T03:23:44.579Z,4.90
2022-08-09T03:27:13.055Z,5.23
2022-08-09T03:30:29.597Z,6.00
2022-08-09T03:33:54.707Z,7.40
2022-08-09T03:37:10.696Z,6.60
2022-08-09T03:40:33.610Z,5.50
2022-08-09T03:43:39.971Z,6.87
2022-08-09T03:46:49.237Z,5.10
2022-08-09T03:49:58.479Z,5.03
2022-08-09T03:53:10.737Z,4.57
2022-08-09T03:56:16.934Z,4.13
2022-08-09T03:59:42.824Z,6.53
2022-08-09T04:02:52.744Z,7.10
2022-08-09T04:06:01.007Z,6.53
2022-08-09T04:09:48.233Z,5.17
2022-08-09T04:12:49.956Z,5.97
2022-08-09T04:16:19.491Z,5.57
2022-08-09T04:19:42.809Z,9.90
2022-08-09T04:22:50.458Z,4.30
2022-08-09T04:26:00.183Z,3.37
2022-08-09T04:29:12.108Z,4.83
2022-08-09T04:32:31.287Z,6.17
2022-08-09T04:35:40.316Z,4.73
2022-08-09T04:38:49.162Z,4.37
2022-08-09T04:41:57.926Z,4.83
2022-08-09T04:45:10.742Z,5.83
2022-08-09T04:48:16.742Z,5.07
2022-08-09T04:51:24.803Z,5.83
2022-08-09T04:54:35.221Z,6.00
2022-08-09T04:57:58.923Z,5.53
2022-08-09T05:01:16.346Z,4.27
2022-08-09T05:04:31.178Z,4.50
2022-08-09T05:07:37.645Z,7.13
2022-08-09T05:10:50.009Z,5.13
2022-08-09T05:14:11.397Z,4.23
2022-08-09T05:18:38.798Z,6.13
2022-08-09T05:20:47.294Z,5.43
2022-08-09T05:24:01.394Z,6.20
2022-08-09T05:27:08.241Z,4.83
2022-08-09T05:30:23.057Z,5.63
2022-08-09T05:33:32.806Z,7.77
2022-08-09T05:36:40.144Z,6.60
2022-08-09T05:39:48.488Z,8.83
2022-08-09T05:42:56.967Z,7.37
2022-08-09T05:46:06.393Z,9.13
2022-08-09T05:49:13.777Z,7.43
2022-08-09T05:52:39.791Z,7.03
2022-08-09T05:55:53.064Z,7.53
2022-08-09T05:59:00.879Z,6.77
2022-08-09T06:02:11.201Z,6.10
2022-08-09T06:05:30.706Z,8.20
2022-08-09T06:08:52.584Z,8.43
2022-08-09T06:12:08.022Z,8.17
2022-08-09T06:15:15.281Z,5.03
2022-08-09T06:18:25.622Z,7.07
2022-08-09T06:21:32.797Z,6.47
2022-08-09T06:24:38.704Z,6.43
2022-08-09T06:27:51.326Z,7.43
2022-08-09T06:30:57.933Z,8.10
2022-08-09T06:34:09.454Z,9.90
2022-08-09T06:37:15.449Z,8.40
2022-08-09T06:40:24.412Z,7.50
2022-08-09T06:43:34.308Z,8.43
2022-08-09T06:46:41.484Z,11.10
2022-08-09T06:50:14.818Z,10.23
2022-08-09T06:53:17.254Z,9.53
2022-08-09T06:56:23.657Z,11.43
2022-08-09T07:00:55.469Z,11.13
2022-08-09T07:03:06.414Z,5.97
2022-08-09T07:06:16.276Z,9.77
2022-08-09T07:09:56.122Z,6.97
2022-08-09T07:12:57.662Z,7.17
2022-08-09T07:16:41.951Z,6.73
2022-08-09T07:19:32.063Z,7.07
2022-08-09T07:22:49.564Z,6.80
2022-08-09T07:26:02.639Z,7.20
2022-08-09T07:29:13.203Z,8.07
2022-08-09T07:32:20.560Z,7.13
2022-08-09T07:35:28.892Z,7.13
2022-08-09T07:38:56.846Z,6.40
2022-08-09T07:42:07.919Z,6.80
2022-08-09T07:45:23.701Z,6.40
2022-08-09T07:48:40.794Z,6.83
2022-08-09T07:52:05.447Z,4.07
2022-08-09T07:55:16.794Z,2.10
2022-08-09T07:58:26.980Z,2.73
2022-08-09T08:01:34.151Z,2.90
2022-08-09T08:04:41.999Z,1.63
2022-08-09T08:08:43.327Z,2.95
2022-08-09T08:12:09.662Z,3.43
2022-08-09T08:14:50.918Z,5.80
2022-08-09T08:17:58.845Z,1.70
2022-08-09T08:21:06.485Z,2.60
2022-08-09T08:24:16.847Z,2.87
2022-08-09T08:27:26.948Z,3.53
2022-08-09T08:30:48.667Z,1.80
2022-08-09T08:33:56.636Z,3.60
2022-08-09T08:37:08.174Z,4.82
2022-08-09T08:40:22.104Z,2.47
2022-08-09T08:43:36.118Z,3.67
2022-08-09T08:47:02.496Z,3.47
2022-08-09T08:50:12.790Z,2.67
2022-08-09T08:53:22.432Z,5.57
2022-08-09T08:56:29.736Z,2.43
2022-08-09T08:59:46.880Z,2.37
2022-08-09T09:02:55.818Z,3.27
2022-08-09T09:06:05.075Z,1.30
2022-08-09T09:09:21.144Z,3.05
2022-08-09T09:12:40.912Z,2.08
2022-08-09T09:15:50.908Z,4.30
2022-08-09T09:22:28.855Z,5.45
2022-08-09T09:26:02.306Z,2.83
2022-08-09T09:29:11.390Z,2.33
2022-08-09T09:32:35.071Z,7.10
2022-08-09T09:36:02.488Z,1.85
2022-08-09T09:39:12.557Z,3.50
2022-08-09T09:42:28.019Z,3.85
2022-08-09T09:45:57.489Z,2.88
2022-08-09T09:49:50.271Z,2.55
2022-08-09T09:52:56.187Z,3.05
2022-08-09T09:56:06.552Z,3.13
2022-08-09T09:59:38.249Z,5.45
2022-08-09T10:02:49.419Z,1.50
2022-08-09T10:06:05.243Z,5.78
2022-08-09T10:09:23.327Z,1.73
2022-08-09T10:12:32.735Z,1.98
2022-08-09T10:16:55.811Z,3.78
2022-08-09T10:19:20.185Z,2.17
2022-08-09T10:22:41.868Z,3.20
2022-08-09T10:26:06.586Z,2.30
2022-08-09T10:29:36.075Z,2.75
2022-08-09T10:32:45.081Z,3.88
2022-08-09T10:35:57.502Z,3.72
2022-08-09T10:39:21.613Z,2.88
2022-08-09T10:42:34.616Z,3.08
2022-08-09T10:45:58.495Z,3.05
2022-08-09T10:49:16.594Z,3.85
2022-08-09T10:52:47.631Z,4.43
2022-08-09T10:56:22.762Z,2.63
2022-08-09T10:59:55.723Z,2.05
2022-08-09T11:03:18.328Z,1.95
2022-08-09T11:06:27.788Z,1.60
2022-08-09T11:09:59.682Z,3.50
2022-08-09T11:13:50.133Z,3.20
2022-08-09T11:16:48.777Z,3.60
2022-08-09T11:20:10.174Z,2.08
2022-08-09T11:23:23.872Z,1.73
2022-08-09T11:26:47.332Z,2.88
2022-08-09T11:30:32.901Z,3.35
2022-08-09T11:33:42.164Z,2.55
2022-08-09T11:36:51.398Z,2.85
2022-08-09T11:40:09.552Z,2.65
2022-08-09T11:43:20.212Z,3.00
2022-08-09T11:46:33.608Z,1.95
2022-08-09T11:50:53.083Z,5.40
2022-08-09T11:54:01.528Z,2.72
2022-08-09T11:56:58.285Z,4.60
2022-08-09T12:00:13.064Z,1.75
2022-08-09T12:03:55.590Z,3.22
2022-08-09T12:06:56.456Z,2.25
2022-08-09T12:10:06.315Z,3.42
2022-08-09T12:14:07.133Z,4.93
2022-08-09T12:17:28.142Z,1.70
2022-08-09T12:20:35.152Z,4.40
2022-08-09T12:23:56.347Z,4.07
2022-08-09T12:29:11.407Z,2.55
2022-08-09T12:30:50.069Z,5.05
2022-08-09T12:34:01.282Z,1.65
2022-08-09T12:37:24.173Z,2.40
2022-08-09T12:40:35.425Z,1.20
2022-08-09T12:44:06.068Z,4.25
2022-08-09T12:47:10.934Z,1.48
2022-08-09T12:50:23.767Z,1.88
2022-08-09T12:53:38.608Z,1.70
2022-08-09T12:56:54.471Z,4.13
2022-08-09T13:00:17.120Z,6.10
2022-08-09T13:03:53.805Z,2.47
2022-08-09T13:06:57.091Z,2.97
2022-08-09T13:10:08.606Z,2.42
2022-08-09T13:13:17.599Z,2.70
2022-08-09T13:16:24.636Z,1.55
2022-08-09T13:20:07.135Z,5.13
2022-08-09T13:24:01.822Z,2.30
2022-08-09T13:26:50.018Z,1.48
2022-08-09T13:30:04.241Z,1.75
2022-08-09T13:33:53.086Z,3.35
2022-08-09T13:36:55.560Z,3.28
2022-08-09T13:41:51.143Z,2.38
2022-08-09T13:43:38.781Z,2.83
2022-08-09T13:47:25.273Z,3.75
2022-08-09T13:50:30.112Z,3.78
2022-08-09T13:53:43.129Z,1.90
2022-08-09T13:56:51.822Z,1.50
2022-08-09T14:00:03.419Z,3.38
2022-08-09T14:04:01.553Z,2.63
2022-08-09T14:06:46.369Z,1.63
2022-08-09T14:09:54.533Z,4.00
2022-08-09T14:13:03.269Z,6.13
2022-08-09T14:16:16.199Z,8.07
2022-08-09T14:19:22.746Z,1.48
2022-08-09T14:22:31.681Z,2.58
2022-08-09T14:25:42.833Z,1.10
2022-08-09T14:28:50.998Z,1.67
2022-08-09T14:32:04.575Z,1.63
2022-08-09T14:35:18.096Z,1.70
2022-08-09T14:38:24.032Z,1.30
2022-08-09T14:41:39.552Z,2.97
2022-08-09T14:44:59.412Z,1.50
2022-08-09T14:48:11.927Z,2.30
2022-08-09T14:51:21.259Z,2.28
2022-08-09T14:54:32.313Z,2.58
2022-08-09T14:57:43.178Z,2.45
2022-08-09T15:00:52.090Z,2.63
2022-08-09T15:04:00.860Z,1.48
2022-08-09T15:07:10.218Z,3.38
2022-08-09T15:10:16.947Z,1.98
2022-08-09T15:13:24.061Z,2.85
2022-08-09T15:16:30.602Z,8.68
2022-08-09T15:19:59.672Z,3.45
2022-08-09T15:24:01.275Z,1.83
2022-08-09T15:26:36.352Z,2.90
2022-08-09T15:30:56.076Z,2.60
2022-08-09T15:33:23.423Z,2.33
2022-08-09T15:36:48.085Z,1.60
2022-08-09T15:39:55.584Z,2.70
2022-08-09T15:43:03.370Z,2.60
2022-08-09T15:46:32.271Z,1.70
2022-08-09T15:49:36.405Z,1.73
2022-08-09T15:52:55.010Z,1.52
2022-08-09T15:56:23.423Z,1.70
2022-08-09T15:59:37.006Z,2.28
2022-08-09T16:02:53.809Z,2.22
2022-08-09T16:06:01.279Z,2.20
2022-08-09T16:09:12.504Z,1.75
2022-08-09T16:12:20.314Z,1.92
2022-08-09T16:16:10.621Z,1.83
2022-08-09T16:18:53.726Z,2.65
2022-08-09T16:21:59.809Z,1.85
2022-08-09T16:25:14.469Z,2.25
2022-08-09T16:28:25.864Z,1.92
2022-08-09T16:32:10.395Z,3.50
2022-08-09T16:34:59.481Z,2.35
2022-08-09T16:38:09.571Z,2.72
2022-08-09T16:41:23.299Z,4.05
2022-08-09T16:44:45.534Z,2.55
2022-08-09T16:48:41.445Z,2.28
2022-08-09T16:51:23.288Z,2.80
2022-08-09T16:54:34.373Z,2.83
2022-08-09T16:58:10.401Z,3.67
2022-08-09T17:01:12.534Z,1.63
2022-08-09T17:04:25.552Z,2.97
2022-08-09T17:08:46.437Z,3.22
2022-08-09T17:10:59.633Z,3.58
2022-08-09T17:14:25.624Z,2.35
2022-08-09T17:17:50.626Z,2.08
2022-08-09T17:20:57.687Z,1.83
2022-08-09T17:24:20.720Z,4.43
2022-08-09T17:27:32.967Z,2.03
2022-08-09T17:30:47.569Z,3.28
2022-08-09T17:33:54.341Z,2.00
2022-08-09T17:37:02.369Z,1.90
2022-08-09T17:40:18.108Z,2.63
2022-08-09T17:43:33.636Z,2.10
2022-08-09T17:46:55.277Z,4.43
2022-08-09T17:50:14.106Z,2.13
2022-08-09T17:53:23.728Z,1.70
2022-08-09T17:56:35.910Z,3.67
2022-08-09T17:59:42.249Z,2.60
2022-08-09T18:02:58.625Z,4.18
2022-08-09T18:06:06.304Z,3.00
2022-08-09T18:09:22.035Z,2.00
2022-08-09T18:12:40.236Z,3.30
2022-08-09T18:16:04.958Z,3.93
2022-08-09T18:20:54.655Z,4.73
2022-08-09T18:22:51.232Z,3.73
2022-08-09T18:25:57.972Z,3.37
2022-08-09T18:30:41.747Z,3.53
2022-08-09T18:32:33.354Z,3.37
2022-08-09T18:35:58.230Z,3.57
2022-08-09T18:39:11.162Z,2.93
2022-08-09T18:42:29.287Z,3.10
2022-08-09T18:46:51.210Z,3.40
2022-08-09T18:49:03.719Z,3.90
2022-08-09T18:52:14.065Z,2.73
2022-08-09T18:55:29.158Z,3.63
2022-08-09T18:58:47.377Z,3.57
2022-08-09T19:02:03.315Z,3.63
2022-08-09T19:05:20.537Z,3.60
2022-08-09T19:08:38.933Z,5.20
2022-08-09T19:11:45.831Z,2.50
2022-08-09T19:14:54.309Z,4.43
2022-08-09T19:18:00.948Z,4.77
2022-08-09T19:21:10.809Z,3.30
2022-08-09T19:24:37.975Z,3.30
2022-08-09T19:27:47.751Z,4.13
2022-08-09T19:30:58.994Z,3.20
2022-08-09T19:34:09.875Z,3.70
2022-08-09T19:37:28.902Z,4.63
2022-08-09T19:40:51.388Z,2.90
2022-08-09T19:44:01.046Z,4.77
2022-08-09T19:47:11.236Z,3.73
2022-08-09T19:50:51.050Z,4.23
2022-08-09T19:53:45.597Z,4.03
2022-08-09T19:56:57.341Z,3.37
2022-08-09T20:00:07.483Z,3.53
2022-08-09T20:04:12.612Z,5.63
2022-08-09T20:06:45.633Z,4.53
2022-08-09T20:09:52.118Z,5.67
2022-08-09T20:13:03.569Z,3.87
2022-08-09T20:16:37.175Z,5.10
2022-08-09T20:19:47.853Z,11.00
2022-08-09T20:23:00.603Z,7.90
2022-08-09T20:26:13.320Z,4.13
2022-08-09T20:29:24.886Z,5.60
2022-08-09T20:32:45.642Z,4.13
2022-08-09T20:35:54.600Z,4.50
2022-08-09T20:40:13.401Z,6.47
2022-08-09T20:42:29.350Z,4.13
2022-08-09T20:46:00.357Z,3.47
2022-08-09T20:49:10.297Z,4.50
2022-08-09T20:52:20.644Z,4.60
2022-08-09T20:55:27.447Z,3.40
2022-08-09T20:58:34.662Z,8.00
2022-08-09T21:01:50.037Z,5.83
2022-08-09T21:05:55.076Z,5.40
2022-08-09T21:08:36.299Z,3.67
2022-08-09T21:15:12.929Z,3.73
2022-08-09T21:18:27.446Z,3.47
2022-08-09T21:21:46.161Z,5.23
2022-08-09T21:25:16.668Z,4.47
2022-08-09T21:28:33.142Z,5.97
2022-08-09T21:31:49.027Z,6.13
2022-08-09T21:34:59.297Z,4.77
2022-08-09T21:38:09.065Z,6.33
2022-08-09T21:41:16.941Z,3.47
2022-08-09T21:44:33.206Z,4.47
2022-08-09T21:47:42.649Z,6.80
2022-08-09T21:50:52.389Z,5.57
2022-08-09T21:53:59.045Z,4.43
2022-08-09T21:57:07.186Z,4.20
2022-08-09T22:00:36.225Z,6.17
2022-08-09T22:03:48.407Z,4.20
2022-08-09T22:07:10.202Z,3.87
2022-08-09T22:10:23.356Z,5.87
2022-08-09T22:13:31.369Z,4.83
2022-08-09T22:16:41.689Z,6.87
2022-08-09T22:19:58.368Z,4.73
2022-08-09T22:23:13.323Z,5.90
2022-08-09T22:26:34.010Z,4.30
2022-08-09T22:29:47.653Z,4.47
2022-08-09T22:32:56.515Z,3.90
2022-08-09T22:36:06.151Z,4.40
2022-08-09T22:39:47.193Z,4.07
2022-08-09T22:42:46.053Z,3.53
2022-08-09T22:48:13.477Z,5.50
2022-08-09T22:49:20.675Z,5.10
2022-08-09T22:52:28.213Z,4.07
2022-08-09T22:56:31.418Z,4.63
2022-08-09T22:59:58.050Z,8.07
2022-08-09T23:02:36.312Z,4.33
2022-08-09T23:05:46.065Z,4.13
2022-08-09T23:08:50.341Z,3.93
2022-08-09T23:11:59.797Z,5.40
2022-08-09T23:15:09.435Z,5.23
2022-08-09T23:18:15.652Z,5.43
2022-08-09T23:21:25.213Z,4.57
2022-08-09T23:24:34.107Z,6.10
2022-08-09T23:28:14.055Z,6.57
2022-08-09T23:31:10.299Z,6.80
2022-08-09T23:34:17.274Z,5.90
2022-08-09T23:37:25.564Z,4.57
2022-08-09T23:40:32.645Z,4.73
2022-08-09T23:43:41.558Z,4.37
2022-08-09T23:46:52.921Z,5.37
2022-08-09T23:50:03.985Z,6.33
2022-08-09T23:53:11.711Z,9.37
2022-08-09T23:56:18.590Z,5.73
